sensor_id;sensor_type;location;lat;lon;timestamp;P1;durP1;ratioP1;P2;durP2;ratioP2
21601;SDS011;10963;50.934;4.668;2023-05-29T00:01:57;13.43;;;5.77;;
21601;SDS011;10963;50.934;4.668;2023-05-29T00:04:25;15.23;;;5.73;;
21601;SDS011;10963;50.934;4.668;2023-05-29T00:06:53;11.03;;;5.90;;
21601;SDS011;10963;50.934;4.668;2023-05-29T00:09:19;12.80;;;5.00;;
21601;SDS011;10963;50.934;4.668;2023-05-29T00:11:44;10.70;;;5.13;;
21601;SDS011;10963;50.934;4.668;2023-05-29T00:14:15;14.47;;;6.20;;
21601;SDS011;10963;50.934;4.668;2023-05-29T00:16:45;10.80;;;5.80;;
21601;SDS011;10963;50.934;4.668;2023-05-29T00:19:12;9.57;;;5.53;;
21601;SDS011;10963;50.934;4.668;2023-05-29T00:21:40;16.47;;;5.87;;
21601;SDS011;10963;50.934;4.668;2023-05-29T00:24:06;12.53;;;5.43;;
21601;SDS011;10963;50.934;4.668;2023-05-29T00:26:34;10.97;;;6.20;;
21601;SDS011;10963;50.934;4.668;2023-05-29T00:29:00;13.77;;;5.37;;
21601;SDS011;10963;50.934;4.668;2023-05-29T00:31:26;14.83;;;6.00;;
21601;SDS011;10963;50.934;4.668;2023-05-29T00:33:53;12.07;;;6.30;;
21601;SDS011;10963;50.934;4.668;2023-05-29T00:36:18;11.53;;;5.90;;
21601;SDS011;10963;50.934;4.668;2023-05-29T00:38:49;11.43;;;5.77;;
21601;SDS011;10963;50.934;4.668;2023-05-29T00:41:15;13.20;;;5.90;;
21601;SDS011;10963;50.934;4.668;2023-05-29T00:43:41;14.50;;;5.80;;
21601;SDS011;10963;50.934;4.668;2023-05-29T00:46:08;13.00;;;5.83;;
21601;SDS011;10963;50.934;4.668;2023-05-29T00:48:35;12.67;;;5.73;;
21601;SDS011;10963;50.934;4.668;2023-05-29T00:51:01;11.40;;;5.33;;
21601;SDS011;10963;50.934;4.668;2023-05-29T00:53:26;14.10;;;5.77;;
21601;SDS011;10963;50.934;4.668;2023-05-29T00:55:55;12.47;;;5.93;;
21601;SDS011;10963;50.934;4.668;2023-05-29T00:58:22;11.53;;;6.30;;
21601;SDS011;10963;50.934;4.668;2023-05-29T01:00:48;13.33;;;6.33;;
21601;SDS011;10963;50.934;4.668;2023-05-29T01:03:16;15.53;;;7.17;;
21601;SDS011;10963;50.934;4.668;2023-05-29T01:05:42;13.10;;;6.43;;
21601;SDS011;10963;50.934;4.668;2023-05-29T01:08:10;11.53;;;6.37;;
21601;SDS011;10963;50.934;4.668;2023-05-29T01:10:37;15.67;;;6.40;;
21601;SDS011;10963;50.934;4.668;2023-05-29T01:15:56;14.50;;;6.63;;
21601;SDS011;10963;50.934;4.668;2023-05-29T01:27:05;13.70;;;6.03;;
21601;SDS011;10963;50.934;4.668;2023-05-29T01:29:35;11.60;;;6.60;;
21601;SDS011;10963;50.934;4.668;2023-05-29T01:32:07;14.13;;;7.07;;
21601;SDS011;10963;50.934;4.668;2023-05-29T01:34:33;15.03;;;6.43;;
21601;SDS011;10963;50.934;4.668;2023-05-29T01:36:59;16.60;;;6.87;;
21601;SDS011;10963;50.934;4.668;2023-05-29T01:39:25;13.60;;;6.43;;
21601;SDS011;10963;50.934;4.668;2023-05-29T01:41:54;11.20;;;5.73;;
21601;SDS011;10963;50.934;4.668;2023-05-29T01:44:20;12.03;;;6.10;;
21601;SDS011;10963;50.934;4.668;2023-05-29T01:46:48;15.63;;;6.40;;
21601;SDS011;10963;50.934;4.668;2023-05-29T01:49:14;12.07;;;5.90;;
21601;SDS011;10963;50.934;4.668;2023-05-29T01:51:41;16.20;;;6.33;;
21601;SDS011;10963;50.934;4.668;2023-05-29T01:54:10;15.77;;;6.77;;
21601;SDS011;10963;50.934;4.668;2023-05-29T01:56:39;13.53;;;6.63;;
21601;SDS011;10963;50.934;4.668;2023-05-29T01:59:05;14.30;;;6.63;;
21601;SDS011;10963;50.934;4.668;2023-05-29T02:01:35;10.83;;;6.63;;
21601;SDS011;10963;50.934;4.668;2023-05-29T02:04:05;17.00;;;5.70;;
21601;SDS011;10963;50.934;4.668;2023-05-29T02:06:30;15.03;;;6.03;;
21601;SDS011;10963;50.934;4.668;2023-05-29T02:09:01;12.37;;;6.73;;
21601;SDS011;10963;50.934;4.668;2023-05-29T02:11:29;13.43;;;6.23;;
21601;SDS011;10963;50.934;4.668;2023-05-29T02:13:57;11.63;;;6.47;;
21601;SDS011;10963;50.934;4.668;2023-05-29T02:16:25;13.37;;;6.33;;
21601;SDS011;10963;50.934;4.668;2023-05-29T02:18:52;15.03;;;6.10;;
21601;SDS011;10963;50.934;4.668;2023-05-29T02:21:18;13.37;;;6.60;;
21601;SDS011;10963;50.934;4.668;2023-05-29T02:23:46;13.93;;;5.93;;
21601;SDS011;10963;50.934;4.668;2023-05-29T02:26:14;19.60;;;5.97;;
21601;SDS011;10963;50.934;4.668;2023-05-29T02:28:42;10.60;;;4.77;;
21601;SDS011;10963;50.934;4.668;2023-05-29T02:31:13;12.50;;;4.70;;
21601;SDS011;10963;50.934;4.668;2023-05-29T02:33:41;11.40;;;5.10;;
21601;SDS011;10963;50.934;4.668;2023-05-29T02:36:07;12.43;;;5.30;;
21601;SDS011;10963;50.934;4.668;2023-05-29T02:38:35;11.77;;;4.33;;
21601;SDS011;10963;50.934;4.668;2023-05-29T02:41:01;13.67;;;4.73;;
21601;SDS011;10963;50.934;4.668;2023-05-29T02:43:27;10.87;;;4.17;;
21601;SDS011;10963;50.934;4.668;2023-05-29T02:45:52;18.90;;;4.57;;
21601;SDS011;10963;50.934;4.668;2023-05-29T02:48:18;11.37;;;4.40;;
21601;SDS011;10963;50.934;4.668;2023-05-29T02:50:44;14.27;;;4.20;;
21601;SDS011;10963;50.934;4.668;2023-05-29T02:53:12;16.67;;;4.00;;
21601;SDS011;10963;50.934;4.668;2023-05-29T02:55:37;10.47;;;4.27;;
21601;SDS011;10963;50.934;4.668;2023-05-29T02:58:08;16.67;;;4.33;;
21601;SDS011;10963;50.934;4.668;2023-05-29T03:00:36;12.37;;;4.03;;
21601;SDS011;10963;50.934;4.668;2023-05-29T03:03:02;14.00;;;4.43;;
21601;SDS011;10963;50.934;4.668;2023-05-29T03:05:33;9.87;;;4.20;;
21601;SDS011;10963;50.934;4.668;2023-05-29T03:07:59;14.23;;;4.37;;
21601;SDS011;10963;50.934;4.668;2023-05-29T03:10:25;10.90;;;3.73;;
21601;SDS011;10963;50.934;4.668;2023-05-29T03:12:51;11.70;;;4.63;;
21601;SDS011;10963;50.934;4.668;2023-05-29T03:15:16;12.70;;;4.17;;
21601;SDS011;10963;50.934;4.668;2023-05-29T03:17:45;11.23;;;4.00;;
21601;SDS011;10963;50.934;4.668;2023-05-29T03:20:11;11.13;;;4.27;;
21601;SDS011;10963;50.934;4.668;2023-05-29T03:22:42;9.47;;;3.40;;
21601;SDS011;10963;50.934;4.668;2023-05-29T03:25:08;15.17;;;4.43;;
21601;SDS011;10963;50.934;4.668;2023-05-29T03:27:34;16.33;;;4.63;;
21601;SDS011;10963;50.934;4.668;2023-05-29T03:30:02;11.20;;;4.13;;
21601;SDS011;10963;50.934;4.668;2023-05-29T03:32:28;10.67;;;3.80;;
21601;SDS011;10963;50.934;4.668;2023-05-29T03:34:56;12.90;;;4.00;;
21601;SDS011;10963;50.934;4.668;2023-05-29T03:37:22;11.93;;;3.50;;
21601;SDS011;10963;50.934;4.668;2023-05-29T03:39:48;12.77;;;3.73;;
21601;SDS011;10963;50.934;4.668;2023-05-29T03:42:14;10.23;;;3.67;;
21601;SDS011;10963;50.934;4.668;2023-05-29T03:44:40;10.60;;;3.20;;
21601;SDS011;10963;50.934;4.668;2023-05-29T03:47:06;14.80;;;4.53;;
21601;SDS011;10963;50.934;4.668;2023-05-29T03:49:34;14.63;;;3.23;;
21601;SDS011;10963;50.934;4.668;2023-05-29T03:51:59;16.57;;;4.00;;
21601;SDS011;10963;50.934;4.668;2023-05-29T03:54:25;11.00;;;3.40;;
21601;SDS011;10963;50.934;4.668;2023-05-29T03:56:51;11.70;;;3.30;;
21601;SDS011;10963;50.934;4.668;2023-05-29T03:59:16;13.23;;;3.50;;
21601;SDS011;10963;50.934;4.668;2023-05-29T04:01:42;11.43;;;3.37;;
21601;SDS011;10963;50.934;4.668;2023-05-29T04:04:08;11.13;;;3.30;;
21601;SDS011;10963;50.934;4.668;2023-05-29T04:06:33;10.93;;;2.90;;
21601;SDS011;10963;50.934;4.668;2023-05-29T04:09:03;11.70;;;3.40;;
21601;SDS011;10963;50.934;4.668;2023-05-29T04:11:31;8.43;;;2.73;;
21601;SDS011;10963;50.934;4.668;2023-05-29T04:14:00;9.83;;;2.83;;
21601;SDS011;10963;50.934;4.668;2023-05-29T04:16:31;10.57;;;2.83;;
21601;SDS011;10963;50.934;4.668;2023-05-29T04:18:56;13.40;;;3.33;;
21601;SDS011;10963;50.934;4.668;2023-05-29T04:21:22;11.77;;;2.80;;
21601;SDS011;10963;50.934;4.668;2023-05-29T04:23:48;13.20;;;3.30;;
21601;SDS011;10963;50.934;4.668;2023-05-29T04:26:13;8.87;;;2.87;;
21601;SDS011;10963;50.934;4.668;2023-05-29T04:28:39;12.00;;;2.87;;
21601;SDS011;10963;50.934;4.668;2023-05-29T04:31:05;7.60;;;2.40;;
21601;SDS011;10963;50.934;4.668;2023-05-29T04:33:33;11.77;;;2.30;;
21601;SDS011;10963;50.934;4.668;2023-05-29T04:36:02;9.10;;;2.57;;
21601;SDS011;10963;50.934;4.668;2023-05-29T04:38:30;6.73;;;2.63;;
21601;SDS011;10963;50.934;4.668;2023-05-29T04:40:56;11.63;;;3.87;;
21601;SDS011;10963;50.934;4.668;2023-05-29T04:43:24;14.33;;;3.67;;
21601;SDS011;10963;50.934;4.668;2023-05-29T04:45:53;11.80;;;3.13;;
21601;SDS011;10963;50.934;4.668;2023-05-29T04:48:19;10.43;;;2.53;;
21601;SDS011;10963;50.934;4.668;2023-05-29T04:50:45;13.20;;;2.83;;
21601;SDS011;10963;50.934;4.668;2023-05-29T04:53:10;14.50;;;3.27;;
21601;SDS011;10963;50.934;4.668;2023-05-29T04:55:36;13.03;;;2.90;;
21601;SDS011;10963;50.934;4.668;2023-05-29T04:58:04;9.23;;;2.80;;
21601;SDS011;10963;50.934;4.668;2023-05-29T05:00:33;13.67;;;2.60;;
21601;SDS011;10963;50.934;4.668;2023-05-29T05:02:58;12.07;;;3.10;;
21601;SDS011;10963;50.934;4.668;2023-05-29T05:05:26;10.57;;;3.10;;
21601;SDS011;10963;50.934;4.668;2023-05-29T05:07:52;9.07;;;2.40;;
21601;SDS011;10963;50.934;4.668;2023-05-29T05:10:22;7.50;;;2.80;;
21601;SDS011;10963;50.934;4.668;2023-05-29T05:12:50;11.57;;;2.97;;
21601;SDS011;10963;50.934;4.668;2023-05-29T05:15:16;9.53;;;3.10;;
21601;SDS011;10963;50.934;4.668;2023-05-29T05:17:42;10.00;;;2.77;;
21601;SDS011;10963;50.934;4.668;2023-05-29T05:20:07;13.83;;;2.93;;
21601;SDS011;10963;50.934;4.668;2023-05-29T05:22:33;10.43;;;2.60;;
21601;SDS011;10963;50.934;4.668;2023-05-29T05:24:59;16.57;;;2.83;;
21601;SDS011;10963;50.934;4.668;2023-05-29T05:27:25;10.67;;;2.80;;
21601;SDS011;10963;50.934;4.668;2023-05-29T05:29:53;10.23;;;2.53;;
21601;SDS011;10963;50.934;4.668;2023-05-29T05:32:21;8.03;;;2.93;;
21601;SDS011;10963;50.934;4.668;2023-05-29T05:34:47;10.93;;;2.93;;
21601;SDS011;10963;50.934;4.668;2023-05-29T05:37:15;12.23;;;3.07;;
21601;SDS011;10963;50.934;4.668;2023-05-29T05:39:43;7.87;;;2.90;;
21601;SDS011;10963;50.934;4.668;2023-05-29T05:42:09;9.37;;;2.97;;
21601;SDS011;10963;50.934;4.668;2023-05-29T05:44:37;12.53;;;3.43;;
21601;SDS011;10963;50.934;4.668;2023-05-29T05:47:03;13.97;;;2.87;;
21601;SDS011;10963;50.934;4.668;2023-05-29T05:49:29;15.80;;;2.90;;
21601;SDS011;10963;50.934;4.668;2023-05-29T05:51:55;8.50;;;2.30;;
21601;SDS011;10963;50.934;4.668;2023-05-29T05:54:20;14.10;;;2.77;;
21601;SDS011;10963;50.934;4.668;2023-05-29T05:56:46;17.00;;;2.17;;
21601;SDS011;10963;50.934;4.668;2023-05-29T05:59:12;5.57;;;2.33;;
21601;SDS011;10963;50.934;4.668;2023-05-29T06:01:40;9.33;;;2.70;;
21601;SDS011;10963;50.934;4.668;2023-05-29T06:04:06;8.70;;;2.50;;
21601;SDS011;10963;50.934;4.668;2023-05-29T06:06:32;13.83;;;3.13;;
21601;SDS011;10963;50.934;4.668;2023-05-29T06:08:57;6.50;;;2.27;;
21601;SDS011;10963;50.934;4.668;2023-05-29T06:11:25;11.37;;;2.70;;
21601;SDS011;10963;50.934;4.668;2023-05-29T06:13:51;8.63;;;2.47;;
21601;SDS011;10963;50.934;4.668;2023-05-29T06:16:17;13.07;;;2.70;;
21601;SDS011;10963;50.934;4.668;2023-05-29T06:18:44;8.17;;;2.30;;
21601;SDS011;10963;50.934;4.668;2023-05-29T06:21:11;10.03;;;3.00;;
21601;SDS011;10963;50.934;4.668;2023-05-29T06:23:37;10.33;;;3.07;;
21601;SDS011;10963;50.934;4.668;2023-05-29T06:26:03;11.73;;;2.67;;
21601;SDS011;10963;50.934;4.668;2023-05-29T06:28:29;11.13;;;2.43;;
21601;SDS011;10963;50.934;4.668;2023-05-29T06:30:57;9.70;;;2.67;;
21601;SDS011;10963;50.934;4.668;2023-05-29T06:33:23;9.87;;;3.07;;
21601;SDS011;10963;50.934;4.668;2023-05-29T06:35:51;8.87;;;2.40;;
21601;SDS011;10963;50.934;4.668;2023-05-29T06:38:16;12.60;;;3.37;;
21601;SDS011;10963;50.934;4.668;2023-05-29T06:40:42;10.63;;;2.67;;
21601;SDS011;10963;50.934;4.668;2023-05-29T06:43:13;11.20;;;3.00;;
21601;SDS011;10963;50.934;4.668;2023-05-29T06:45:38;10.47;;;2.50;;
21601;SDS011;10963;50.934;4.668;2023-05-29T06:48:05;15.33;;;3.03;;
21601;SDS011;10963;50.934;4.668;2023-05-29T06:50:31;11.43;;;2.27;;
21601;SDS011;10963;50.934;4.668;2023-05-29T06:52:58;10.80;;;2.65;;
21601;SDS011;10963;50.934;4.668;2023-05-29T06:55:24;9.37;;;2.83;;
21601;SDS011;10963;50.934;4.668;2023-05-29T06:57:50;11.07;;;2.70;;
21601;SDS011;10963;50.934;4.668;2023-05-29T07:00:16;8.50;;;2.43;;
21601;SDS011;10963;50.934;4.668;2023-05-29T07:02:42;11.03;;;2.27;;
21601;SDS011;10963;50.934;4.668;2023-05-29T07:05:08;10.20;;;2.60;;
21601;SDS011;10963;50.934;4.668;2023-05-29T07:07:34;10.90;;;2.53;;
21601;SDS011;10963;50.934;4.668;2023-05-29T07:10:02;9.13;;;2.17;;
21601;SDS011;10963;50.934;4.668;2023-05-29T07:12:27;10.57;;;2.70;;
21601;SDS011;10963;50.934;4.668;2023-05-29T07:14:55;9.83;;;2.37;;
21601;SDS011;10963;50.934;4.668;2023-05-29T07:17:21;6.03;;;2.20;;
21601;SDS011;10963;50.934;4.668;2023-05-29T07:19:47;8.60;;;2.13;;
21601;SDS011;10963;50.934;4.668;2023-05-29T07:22:14;8.77;;;2.20;;
21601;SDS011;10963;50.934;4.668;2023-05-29T07:24:40;11.93;;;2.87;;
21601;SDS011;10963;50.934;4.668;2023-05-29T07:27:06;9.73;;;2.33;;
21601;SDS011;10963;50.934;4.668;2023-05-29T07:29:32;11.00;;;2.60;;
21601;SDS011;10963;50.934;4.668;2023-05-29T07:32:00;11.53;;;2.20;;
21601;SDS011;10963;50.934;4.668;2023-05-29T07:34:26;13.23;;;2.60;;
21601;SDS011;10963;50.934;4.668;2023-05-29T07:37:00;10.73;;;2.37;;
21601;SDS011;10963;50.934;4.668;2023-05-29T07:39:33;8.43;;;2.17;;
21601;SDS011;10963;50.934;4.668;2023-05-29T07:42:02;7.33;;;2.10;;
21601;SDS011;10963;50.934;4.668;2023-05-29T07:44:31;8.47;;;2.17;;
21601;SDS011;10963;50.934;4.668;2023-05-29T07:46:56;7.77;;;2.53;;
21601;SDS011;10963;50.934;4.668;2023-05-29T07:49:22;13.63;;;2.73;;
21601;SDS011;10963;50.934;4.668;2023-05-29T07:51:48;11.80;;;2.37;;
21601;SDS011;10963;50.934;4.668;2023-05-29T07:54:15;9.10;;;2.43;;
21601;SDS011;10963;50.934;4.668;2023-05-29T07:56:45;9.33;;;2.70;;
21601;SDS011;10963;50.934;4.668;2023-05-29T07:59:14;8.03;;;2.53;;
21601;SDS011;10963;50.934;4.668;2023-05-29T08:01:39;7.80;;;2.83;;
21601;SDS011;10963;50.934;4.668;2023-05-29T08:04:05;13.10;;;2.80;;
21601;SDS011;10963;50.934;4.668;2023-05-29T08:06:35;12.90;;;3.23;;
21601;SDS011;10963;50.934;4.668;2023-05-29T08:09:02;8.80;;;2.50;;
21601;SDS011;10963;50.934;4.668;2023-05-29T08:11:28;8.97;;;2.60;;
21601;SDS011;10963;50.934;4.668;2023-05-29T08:13:54;6.80;;;2.27;;
21601;SDS011;10963;50.934;4.668;2023-05-29T08:16:20;11.20;;;2.63;;
21601;SDS011;10963;50.934;4.668;2023-05-29T08:18:47;8.53;;;2.50;;
21601;SDS011;10963;50.934;4.668;2023-05-29T08:21:15;9.43;;;2.90;;
21601;SDS011;10963;50.934;4.668;2023-05-29T08:23:43;7.47;;;2.97;;
21601;SDS011;10963;50.934;4.668;2023-05-29T08:26:09;6.63;;;2.83;;
21601;SDS011;10963;50.934;4.668;2023-05-29T08:28:34;9.20;;;2.93;;
21601;SDS011;10963;50.934;4.668;2023-05-29T08:31:02;11.60;;;2.70;;
21601;SDS011;10963;50.934;4.668;2023-05-29T08:33:28;9.77;;;2.73;;
21601;SDS011;10963;50.934;4.668;2023-05-29T08:35:58;13.20;;;2.33;;
21601;SDS011;10963;50.934;4.668;2023-05-29T08:38:26;12.60;;;3.20;;
21601;SDS011;10963;50.934;4.668;2023-05-29T08:40:52;7.77;;;2.67;;
21601;SDS011;10963;50.934;4.668;2023-05-29T08:43:23;10.33;;;2.80;;
21601;SDS011;10963;50.934;4.668;2023-05-29T08:45:53;11.13;;;3.10;;
21601;SDS011;10963;50.934;4.668;2023-05-29T08:48:24;15.40;;;3.00;;
21601;SDS011;10963;50.934;4.668;2023-05-29T08:50:52;12.27;;;3.13;;
21601;SDS011;10963;50.934;4.668;2023-05-29T08:53:23;9.67;;;3.20;;
21601;SDS011;10963;50.934;4.668;2023-05-29T08:55:50;12.07;;;3.03;;
21601;SDS011;10963;50.934;4.668;2023-05-29T08:58:20;12.27;;;2.93;;
21601;SDS011;10963;50.934;4.668;2023-05-29T09:00:47;12.63;;;2.80;;
21601;SDS011;10963;50.934;4.668;2023-05-29T09:03:13;9.53;;;2.80;;
21601;SDS011;10963;50.934;4.668;2023-05-29T09:05:42;11.63;;;3.03;;
21601;SDS011;10963;50.934;4.668;2023-05-29T09:08:09;16.17;;;3.10;;
21601;SDS011;10963;50.934;4.668;2023-05-29T09:10:43;7.57;;;2.40;;
21601;SDS011;10963;50.934;4.668;2023-05-29T09:13:12;11.50;;;3.47;;
21601;SDS011;10963;50.934;4.668;2023-05-29T09:15:41;9.50;;;2.60;;
21601;SDS011;10963;50.934;4.668;2023-05-29T09:18:12;12.07;;;3.30;;
21601;SDS011;10963;50.934;4.668;2023-05-29T09:20:38;9.80;;;2.90;;
21601;SDS011;10963;50.934;4.668;2023-05-29T09:23:07;9.83;;;2.77;;
21601;SDS011;10963;50.934;4.668;2023-05-29T09:25:36;9.47;;;2.90;;
21601;SDS011;10963;50.934;4.668;2023-05-29T09:28:07;12.67;;;3.07;;
21601;SDS011;10963;50.934;4.668;2023-05-29T09:30:43;12.53;;;2.93;;
21601;SDS011;10963;50.934;4.668;2023-05-29T09:33:10;10.47;;;3.33;;
21601;SDS011;10963;50.934;4.668;2023-05-29T09:35:44;16.97;;;3.37;;
21601;SDS011;10963;50.934;4.668;2023-05-29T09:38:15;8.73;;;2.30;;
21601;SDS011;10963;50.934;4.668;2023-05-29T09:40:44;14.13;;;3.40;;
21601;SDS011;10963;50.934;4.668;2023-05-29T09:45:39;11.50;;;2.77;;
21601;SDS011;10963;50.934;4.668;2023-05-29T09:48:15;11.97;;;3.20;;
21601;SDS011;10963;50.934;4.668;2023-05-29T09:50:50;8.23;;;2.70;;
21601;SDS011;10963;50.934;4.668;2023-05-29T09:55:48;12.70;;;2.63;;
21601;SDS011;10963;50.934;4.668;2023-05-29T09:58:20;9.27;;;3.07;;
21601;SDS011;10963;50.934;4.668;2023-05-29T10:00:49;12.53;;;2.80;;
21601;SDS011;10963;50.934;4.668;2023-05-29T10:03:17;9.50;;;2.93;;
21601;SDS011;10963;50.934;4.668;2023-05-29T10:05:47;8.93;;;2.60;;
21601;SDS011;10963;50.934;4.668;2023-05-29T10:08:20;13.33;;;2.73;;
21601;SDS011;10963;50.934;4.668;2023-05-29T10:11:01;8.37;;;2.50;;
21601;SDS011;10963;50.934;4.668;2023-05-29T10:13:33;13.53;;;3.23;;
21601;SDS011;10963;50.934;4.668;2023-05-29T10:16:03;6.60;;;2.27;;
21601;SDS011;10963;50.934;4.668;2023-05-29T10:18:37;11.67;;;2.73;;
21601;SDS011;10963;50.934;4.668;2023-05-29T10:21:07;10.87;;;2.87;;
21601;SDS011;10963;50.934;4.668;2023-05-29T10:23:36;8.70;;;2.20;;
21601;SDS011;10963;50.934;4.668;2023-05-29T10:26:12;7.30;;;2.87;;
21601;SDS011;10963;50.934;4.668;2023-05-29T10:28:41;11.07;;;3.40;;
21601;SDS011;10963;50.934;4.668;2023-05-29T10:31:24;9.37;;;2.63;;
21601;SDS011;10963;50.934;4.668;2023-05-29T10:37:06;9.50;;;2.80;;
21601;SDS011;10963;50.934;4.668;2023-05-29T10:39:45;8.53;;;2.63;;
21601;SDS011;10963;50.934;4.668;2023-05-29T10:45:09;9.00;;;3.30;;
21601;SDS011;10963;50.934;4.668;2023-05-29T10:47:37;10.97;;;2.67;;
21601;SDS011;10963;50.934;4.668;2023-05-29T10:50:05;4.83;;;2.23;;
21601;SDS011;10963;50.934;4.668;2023-05-29T10:52:34;7.03;;;2.23;;
21601;SDS011;10963;50.934;4.668;2023-05-29T10:55:13;11.47;;;2.57;;
21601;SDS011;10963;50.934;4.668;2023-05-29T10:57:46;13.90;;;2.10;;
21601;SDS011;10963;50.934;4.668;2023-05-29T11:00:15;7.27;;;2.33;;
21601;SDS011;10963;50.934;4.668;2023-05-29T11:02:43;9.73;;;2.70;;
21601;SDS011;10963;50.934;4.668;2023-05-29T11:05:20;5.77;;;2.30;;
21601;SDS011;10963;50.934;4.668;2023-05-29T11:08:01;8.83;;;2.50;;
21601;SDS011;10963;50.934;4.668;2023-05-29T11:18:50;5.53;;;2.20;;
21601;SDS011;10963;50.934;4.668;2023-05-29T11:23:56;7.27;;;2.70;;
21601;SDS011;10963;50.934;4.668;2023-05-29T11:26:36;7.67;;;2.30;;
21601;SDS011;10963;50.934;4.668;2023-05-29T11:29:03;6.27;;;2.47;;
21601;SDS011;10963;50.934;4.668;2023-05-29T11:31:33;8.63;;;3.00;;
21601;SDS011;10963;50.934;4.668;2023-05-29T11:34:02;10.30;;;2.50;;
21601;SDS011;10963;50.934;4.668;2023-05-29T11:36:33;9.97;;;2.80;;
21601;SDS011;10963;50.934;4.668;2023-05-29T11:39:00;7.23;;;2.53;;
21601;SDS011;10963;50.934;4.668;2023-05-29T11:41:26;10.10;;;2.63;;
21601;SDS011;10963;50.934;4.668;2023-05-29T11:44:01;8.67;;;2.53;;
21601;SDS011;10963;50.934;4.668;2023-05-29T11:46:31;7.53;;;2.90;;
21601;SDS011;10963;50.934;4.668;2023-05-29T11:48:58;5.60;;;2.53;;
21601;SDS011;10963;50.934;4.668;2023-05-29T11:51:29;9.33;;;2.90;;
21601;SDS011;10963;50.934;4.668;2023-05-29T11:53:57;8.07;;;2.00;;
21601;SDS011;10963;50.934;4.668;2023-05-29T11:56:27;6.67;;;2.13;;
21601;SDS011;10963;50.934;4.668;2023-05-29T11:58:58;10.80;;;2.33;;
21601;SDS011;10963;50.934;4.668;2023-05-29T12:01:29;8.10;;;2.83;;
21601;SDS011;10963;50.934;4.668;2023-05-29T12:04:01;5.60;;;2.60;;
21601;SDS011;10963;50.934;4.668;2023-05-29T12:06:39;8.97;;;2.90;;
21601;SDS011;10963;50.934;4.668;2023-05-29T12:09:07;4.90;;;2.23;;
21601;SDS011;10963;50.934;4.668;2023-05-29T12:11:34;29.43;;;3.50;;
21601;SDS011;10963;50.934;4.668;2023-05-29T12:14:02;6.47;;;2.47;;
21601;SDS011;10963;50.934;4.668;2023-05-29T12:16:28;5.57;;;2.03;;
21601;SDS011;10963;50.934;4.668;2023-05-29T12:18:55;7.90;;;2.60;;
21601;SDS011;10963;50.934;4.668;2023-05-29T12:21:21;11.00;;;2.67;;
21601;SDS011;10963;50.934;4.668;2023-05-29T12:23:55;6.93;;;2.30;;
21601;SDS011;10963;50.934;4.668;2023-05-29T12:26:26;4.57;;;2.27;;
21601;SDS011;10963;50.934;4.668;2023-05-29T12:28:54;7.40;;;2.20;;
21601;SDS011;10963;50.934;4.668;2023-05-29T12:31:26;6.40;;;2.60;;
21601;SDS011;10963;50.934;4.668;2023-05-29T12:33:53;6.30;;;2.50;;
21601;SDS011;10963;50.934;4.668;2023-05-29T12:36:19;8.30;;;2.67;;
21601;SDS011;10963;50.934;4.668;2023-05-29T12:38:50;6.40;;;2.00;;
21601;SDS011;10963;50.934;4.668;2023-05-29T12:41:26;4.77;;;2.10;;
21601;SDS011;10963;50.934;4.668;2023-05-29T12:44:00;9.23;;;2.57;;
21601;SDS011;10963;50.934;4.668;2023-05-29T12:46:28;9.23;;;2.50;;
21601;SDS011;10963;50.934;4.668;2023-05-29T12:51:42;7.53;;;2.40;;
21601;SDS011;10963;50.934;4.668;2023-05-29T12:54:12;7.73;;;2.83;;
21601;SDS011;10963;50.934;4.668;2023-05-29T12:56:39;7.10;;;2.53;;
21601;SDS011;10963;50.934;4.668;2023-05-29T12:59:06;5.57;;;2.40;;
21601;SDS011;10963;50.934;4.668;2023-05-29T13:01:35;4.80;;;2.07;;
21601;SDS011;10963;50.934;4.668;2023-05-29T13:04:04;5.73;;;2.30;;
21601;SDS011;10963;50.934;4.668;2023-05-29T13:06:34;9.00;;;2.30;;
21601;SDS011;10963;50.934;4.668;2023-05-29T13:09:00;7.23;;;2.63;;
21601;SDS011;10963;50.934;4.668;2023-05-29T13:11:26;9.17;;;2.30;;
21601;SDS011;10963;50.934;4.668;2023-05-29T13:13:54;5.90;;;2.40;;
21601;SDS011;10963;50.934;4.668;2023-05-29T13:16:20;7.17;;;2.97;;
21601;SDS011;10963;50.934;4.668;2023-05-29T13:18:46;9.50;;;3.00;;
21601;SDS011;10963;50.934;4.668;2023-05-29T13:21:12;9.03;;;2.87;;
21601;SDS011;10963;50.934;4.668;2023-05-29T13:23:38;9.23;;;2.30;;
21601;SDS011;10963;50.934;4.668;2023-05-29T13:26:06;7.53;;;2.80;;
21601;SDS011;10963;50.934;4.668;2023-05-29T13:28:33;8.50;;;3.10;;
21601;SDS011;10963;50.934;4.668;2023-05-29T13:30:58;8.83;;;2.40;;
21601;SDS011;10963;50.934;4.668;2023-05-29T13:33:24;14.23;;;3.13;;
21601;SDS011;10963;50.934;4.668;2023-05-29T13:35:50;8.07;;;2.87;;
21601;SDS011;10963;50.934;4.668;2023-05-29T13:38:18;8.23;;;3.13;;
21601;SDS011;10963;50.934;4.668;2023-05-29T13:40:44;9.57;;;2.57;;
21601;SDS011;10963;50.934;4.668;2023-05-29T13:43:09;9.43;;;2.60;;
21601;SDS011;10963;50.934;4.668;2023-05-29T13:45:35;8.40;;;2.30;;
21601;SDS011;10963;50.934;4.668;2023-05-29T13:48:05;9.83;;;2.63;;
21601;SDS011;10963;50.934;4.668;2023-05-29T13:50:31;8.47;;;2.27;;
21601;SDS011;10963;50.934;4.668;2023-05-29T13:52:58;8.30;;;3.00;;
21601;SDS011;10963;50.934;4.668;2023-05-29T13:55:25;5.07;;;2.40;;
21601;SDS011;10963;50.934;4.668;2023-05-29T13:57:50;12.67;;;3.03;;
21601;SDS011;10963;50.934;4.668;2023-05-29T14:00:17;7.50;;;2.57;;
21601;SDS011;10963;50.934;4.668;2023-05-29T14:02:43;4.87;;;2.30;;
21601;SDS011;10963;50.934;4.668;2023-05-29T14:05:08;7.47;;;2.70;;
21601;SDS011;10963;50.934;4.668;2023-05-29T14:07:36;7.90;;;2.53;;
21601;SDS011;10963;50.934;4.668;2023-05-29T14:10:02;4.23;;;2.23;;
21601;SDS011;10963;50.934;4.668;2023-05-29T14:12:35;10.67;;;2.63;;
21601;SDS011;10963;50.934;4.668;2023-05-29T14:15:03;6.67;;;2.47;;
21601;SDS011;10963;50.934;4.668;2023-05-29T14:17:32;8.17;;;2.60;;
21601;SDS011;10963;50.934;4.668;2023-05-29T14:20:00;8.10;;;3.20;;
21601;SDS011;10963;50.934;4.668;2023-05-29T14:22:29;7.50;;;2.70;;
21601;SDS011;10963;50.934;4.668;2023-05-29T14:24:55;9.90;;;2.70;;
21601;SDS011;10963;50.934;4.668;2023-05-29T14:27:23;8.97;;;2.30;;
21601;SDS011;10963;50.934;4.668;2023-05-29T14:29:49;7.03;;;2.60;;
21601;SDS011;10963;50.934;4.668;2023-05-29T14:32:15;8.00;;;2.73;;
21601;SDS011;10963;50.934;4.668;2023-05-29T14:34:40;7.30;;;2.50;;
21601;SDS011;10963;50.934;4.668;2023-05-29T14:37:06;6.53;;;2.50;;
21601;SDS011;10963;50.934;4.668;2023-05-29T14:39:32;6.80;;;2.47;;
21601;SDS011;10963;50.934;4.668;2023-05-29T14:42:05;8.43;;;3.00;;
21601;SDS011;10963;50.934;4.668;2023-05-29T14:44:34;6.87;;;2.77;;
21601;SDS011;10963;50.934;4.668;2023-05-29T14:47:04;3.50;;;2.43;;
21601;SDS011;10963;50.934;4.668;2023-05-29T14:49:32;11.27;;;2.60;;
21601;SDS011;10963;50.934;4.668;2023-05-29T14:51:59;8.00;;;2.40;;
21601;SDS011;10963;50.934;4.668;2023-05-29T14:54:28;5.40;;;2.47;;
21601;SDS011;10963;50.934;4.668;2023-05-29T14:56:53;7.13;;;2.60;;
21601;SDS011;10963;50.934;4.668;2023-05-29T14:59:22;5.13;;;2.20;;
21601;SDS011;10963;50.934;4.668;2023-05-29T15:01:52;7.37;;;2.70;;
21601;SDS011;10963;50.934;4.668;2023-05-29T15:04:24;10.27;;;2.87;;
21601;SDS011;10963;50.934;4.668;2023-05-29T15:06:49;8.00;;;2.40;;
21601;SDS011;10963;50.934;4.668;2023-05-29T15:09:18;6.77;;;2.80;;
21601;SDS011;10963;50.934;4.668;2023-05-29T15:11:46;9.00;;;2.40;;
21601;SDS011;10963;50.934;4.668;2023-05-29T15:14:11;8.20;;;2.70;;
21601;SDS011;10963;50.934;4.668;2023-05-29T15:16:39;4.57;;;2.43;;
21601;SDS011;10963;50.934;4.668;2023-05-29T15:19:07;12.57;;;2.90;;
21601;SDS011;10963;50.934;4.668;2023-05-29T15:21:38;10.97;;;3.07;;